createdAt,value
2022-08-22T00:01:37.147Z,100.00
2022-08-22T00:02:45.362Z,100.00
2022-08-22T00:02:52.599Z,100.00
2022-08-22T00:03:06.692Z,100.00
2022-08-22T00:04:14.664Z,100.00
2022-08-22T00:07:13.929Z,100.00
2022-08-22T00:10:21.004Z,100.00
2022-08-22T00:12:55.208Z,100.00
2022-08-22T00:15:42.078Z,100.00
2022-08-22T00:18:12.918Z,100.00
2022-08-22T00:20:43.646Z,100.00
2022-08-22T00:23:28.601Z,100.00
2022-08-22T00:26:03.528Z,100.00
2022-08-22T00:28:36.999Z,100.00
2022-08-22T00:31:22.421Z,100.00
2022-08-22T00:34:04.865Z,100.00
2022-08-22T00:36:52.549Z,100.00
2022-08-22T00:39:35.631Z,100.00
2022-08-22T00:42:29.509Z,100.00
2022-08-22T00:45:17.202Z,100.00
2022-08-22T00:48:02.109Z,100.00
2022-08-22T00:50:55.476Z,100.00
2022-08-22T00:53:40.295Z,100.00
2022-08-22T00:56:19.092Z,100.00
2022-08-22T00:59:23.283Z,100.00
2022-08-22T01:02:08.488Z,100.00
2022-08-22T01:05:02.256Z,100.00
2022-08-22T01:07:37.842Z,100.00
2022-08-22T01:10:17.084Z,100.00
2022-08-22T01:12:56.441Z,100.00
2022-08-22T01:15:28.726Z,100.00
2022-08-22T01:18:32.724Z,100.00
2022-08-22T01:21:32.984Z,100.00
2022-08-22T01:24:08.697Z,100.00
2022-08-22T01:27:09.363Z,100.00
2022-08-22T01:29:55.987Z,100.00
2022-08-22T01:32:31.617Z,100.00
2022-08-22T01:35:29.910Z,100.00
2022-08-22T01:38:18.101Z,100.00
2022-08-22T01:41:10.526Z,100.00
2022-08-22T01:44:00.609Z,100.00
2022-08-22T01:46:49.037Z,100.00
2022-08-22T01:49:32.561Z,100.00
2022-08-22T01:52:09.661Z,100.00
2022-08-22T01:54:55.038Z,100.00
2022-08-22T01:57:23.468Z,100.00
2022-08-22T01:59:54.729Z,100.00
2022-08-22T02:02:50.485Z,100.00
2022-08-22T02:05:16.963Z,100.00
2022-08-22T02:07:56.415Z,100.00
2022-08-22T02:10:41.343Z,100.00
2022-08-22T02:13:13.961Z,100.00
2022-08-22T02:15:40.473Z,100.00
2022-08-22T02:18:06.987Z,100.00
2022-08-22T02:20:48.769Z,100.00
2022-08-22T02:23:46.296Z,100.00
2022-08-22T02:26:50.453Z,100.00
2022-08-22T02:29:31.636Z,100.00
2022-08-22T02:32:06.833Z,100.00
2022-08-22T02:34:56.727Z,100.00
2022-08-22T02:37:50.426Z,100.00
2022-08-22T02:40:21.689Z,100.00
2022-08-22T02:43:15.405Z,100.00
2022-08-22T02:45:47.027Z,100.00
2022-08-22T02:48:39.376Z,100.00
2022-08-22T02:51:33.258Z,100.00
2022-08-22T02:54:16.986Z,100.00
2022-08-22T02:57:00.780Z,100.00
2022-08-22T03:00:31.352Z,100.00
2022-08-22T03:03:03.286Z,100.00
2022-08-22T03:05:44.048Z,100.00
2022-08-22T03:08:31.978Z,100.00
2022-08-22T03:11:06.294Z,100.00
2022-08-22T03:14:12.195Z,100.00
2022-08-22T03:16:49.369Z,100.00
2022-08-22T03:19:24.909Z,100.00
2022-08-22T03:22:03.144Z,100.00
2022-08-22T03:24:29.643Z,100.00
2022-08-22T03:27:32.395Z,100.00
2022-08-22T03:30:10.160Z,100.00
2022-08-22T03:32:59.071Z,100.00
2022-08-22T03:35:37.255Z,100.00
2022-08-22T03:38:26.978Z,100.00
2022-08-22T03:41:20.255Z,100.00
2022-08-22T03:43:49.836Z,100.00
2022-08-22T03:46:53.518Z,100.00
2022-08-22T03:49:38.353Z,100.00
2022-08-22T03:52:30.757Z,100.00
2022-08-22T03:55:16.033Z,100.00
2022-08-22T03:58:13.616Z,100.00
2022-08-22T04:01:13.542Z,100.00
2022-08-22T04:03:52.339Z,100.00
2022-08-22T04:06:45.994Z,100.00
2022-08-22T04:09:17.788Z,100.00
2022-08-22T04:12:21.906Z,100.00
2022-08-22T04:15:07.143Z,100.00
2022-08-22T04:17:39.562Z,100.00
2022-08-22T04:20:30.587Z,100.00
2022-08-22T04:23:27.603Z,100.00
2022-08-22T04:26:29.006Z,100.00
2022-08-22T04:29:06.478Z,100.00
2022-08-22T04:31:42.404Z,100.00
2022-08-22T04:34:24.985Z,100.00
2022-08-22T04:37:14.676Z,100.00
2022-08-22T04:39:59.740Z,100.00
2022-08-22T04:42:38.067Z,100.00
2022-08-22T04:45:10.556Z,100.00
2022-08-22T04:47:54.305Z,100.00
2022-08-22T04:50:49.666Z,100.00
2022-08-22T04:53:48.486Z,100.00
2022-08-22T04:56:28.125Z,100.00
2022-08-22T04:59:03.580Z,100.00
2022-08-22T05:01:42.843Z,100.00
2022-08-22T05:04:15.278Z,100.00
2022-08-22T05:06:49.496Z,100.00
2022-08-22T05:09:35.906Z,100.00
2022-08-22T05:12:12.008Z,100.00
2022-08-22T05:14:51.327Z,100.00
2022-08-22T05:17:25.474Z,100.00
2022-08-22T05:19:56.782Z,100.00
2022-08-22T05:22:33.891Z,100.00
2022-08-22T05:25:06.676Z,100.00
2022-08-22T05:27:42.094Z,100.00
2022-08-22T05:30:16.238Z,100.00
2022-08-22T05:32:52.261Z,100.00
2022-08-22T05:35:29.212Z,100.00
2022-08-22T05:37:56.677Z,100.00
2022-08-22T05:40:30.422Z,100.00
2022-08-22T05:42:58.260Z,100.00
2022-08-22T05:45:27.145Z,100.00
2022-08-22T05:48:08.846Z,100.00
2022-08-22T05:50:40.428Z,100.00
2022-08-22T05:53:24.089Z,100.00
2022-08-22T05:56:02.932Z,100.00
2022-08-22T05:58:51.413Z,100.00
2022-08-22T06:01:35.538Z,100.00
2022-08-22T06:04:08.629Z,100.00
2022-08-22T06:06:57.460Z,100.00
2022-08-22T06:09:34.675Z,100.00
2022-08-22T06:12:16.490Z,98.03
2022-08-22T06:15:12.351Z,100.00
2022-08-22T06:17:47.165Z,98.85
2022-08-22T06:20:20.479Z,98.55
2022-08-22T06:22:55.045Z,97.40
2022-08-22T06:25:34.960Z,94.91
2022-08-22T06:28:07.654Z,89.84
2022-08-22T06:30:36.895Z,87.06
2022-08-22T06:33:12.671Z,81.12
2022-08-22T06:36:06.327Z,76.73
2022-08-22T06:39:08.167Z,70.61
2022-08-22T06:41:51.972Z,69.63
2022-08-22T06:44:24.005Z,67.83
2022-08-22T06:46:54.439Z,70.02
2022-08-22T06:49:24.745Z,72.38
2022-08-22T06:51:51.989Z,67.70
2022-08-22T06:54:23.834Z,72.64
2022-08-22T06:56:53.369Z,76.87
2022-08-22T06:59:27.589Z,79.13
2022-08-22T07:02:04.081Z,73.65
2022-08-22T07:04:31.598Z,71.36
2022-08-22T07:07:01.320Z,67.31
2022-08-22T07:09:34.664Z,59.39
2022-08-22T07:12:24.158Z,59.63
2022-08-22T07:14:52.067Z,59.38
2022-08-22T07:17:25.718Z,53.89
2022-08-22T07:20:26.975Z,54.81
2022-08-22T07:23:10.157Z,58.31
2022-08-22T07:25:49.211Z,57.80
2022-08-22T07:28:37.013Z,59.72
2022-08-22T07:31:26.400Z,61.17
2022-08-22T07:34:23.582Z,61.34
2022-08-22T07:37:00.534Z,60.85
2022-08-22T07:39:47.816Z,58.00
2022-08-22T07:42:21.582Z,59.37
2022-08-22T07:45:02.996Z,58.83
2022-08-22T07:47:50.607Z,55.31
2022-08-22T07:50:22.768Z,58.51
2022-08-22T07:52:51.748Z,56.75
2022-08-22T07:55:23.310Z,54.73
2022-08-22T07:58:04.728Z,54.55
2022-08-22T08:00:32.477Z,55.03
2022-08-22T08:03:04.598Z,53.90
2022-08-22T08:05:34.473Z,48.50
2022-08-22T08:08:09.093Z,42.96
2022-08-22T08:10:42.367Z,39.27
2022-08-22T08:13:13.508Z,40.37
2022-08-22T08:15:43.037Z,41.90
2022-08-22T08:18:19.084Z,43.04
2022-08-22T08:20:49.404Z,43.08
2022-08-22T08:23:22.249Z,38.40
2022-08-22T08:25:56.974Z,36.67
2022-08-22T08:28:37.562Z,38.23
2022-08-22T08:31:25.120Z,38.78
2022-08-22T08:33:58.088Z,39.27
2022-08-22T08:36:44.763Z,41.71
2022-08-22T08:39:21.278Z,40.39
2022-08-22T08:42:03.376Z,40.37
2022-08-22T08:44:30.460Z,38.31
2022-08-22T08:47:23.251Z,37.90
2022-08-22T08:49:50.559Z,37.04
2022-08-22T08:52:20.014Z,34.01
2022-08-22T08:54:55.054Z,32.60
2022-08-22T08:57:58.689Z,30.55
2022-08-22T09:00:42.917Z,30.65
2022-08-22T09:03:29.813Z,29.06
2022-08-22T09:06:07.199Z,28.93
2022-08-22T09:08:55.651Z,28.15
2022-08-22T09:11:42.381Z,28.03
2022-08-22T09:14:27.766Z,27.95
2022-08-22T09:17:09.309Z,29.51
2022-08-22T09:19:45.605Z,29.80
2022-08-22T09:22:22.190Z,30.12
2022-08-22T09:24:54.351Z,28.28
2022-08-22T09:27:35.961Z,26.47
2022-08-22T09:30:07.629Z,27.93
2022-08-22T09:32:58.380Z,27.33
2022-08-22T09:35:30.874Z,29.62
2022-08-22T09:37:57.573Z,32.20
2022-08-22T09:40:29.259Z,30.59
2022-08-22T09:43:02.369Z,33.86
2022-08-22T09:45:32.783Z,25.75
2022-08-22T09:48:17.627Z,28.30
2022-08-22T09:51:04.723Z,25.12
2022-08-22T09:53:55.601Z,24.00
2022-08-22T09:56:35.519Z,22.84
2022-08-22T09:59:04.880Z,20.33
2022-08-22T10:01:42.184Z,23.71
2022-08-22T10:04:19.466Z,23.85
2022-08-22T10:06:55.839Z,25.13
2022-08-22T10:09:44.869Z,25.83
2022-08-22T10:12:16.699Z,20.52
2022-08-22T10:15:09.022Z,21.66
2022-08-22T10:17:41.118Z,21.30
2022-08-22T10:20:28.351Z,24.66
2022-08-22T10:23:03.799Z,26.09
2022-08-22T10:25:34.695Z,27.98
2022-08-22T10:28:10.479Z,31.65
2022-08-22T10:30:55.980Z,28.84
2022-08-22T10:33:25.516Z,27.87
2022-08-22T10:36:11.698Z,30.70
2022-08-22T10:38:46.913Z,29.54
2022-08-22T10:41:32.551Z,25.38
2022-08-22T10:44:21.628Z,24.59
2022-08-22T10:47:06.977Z,24.52
2022-08-22T10:49:52.266Z,23.22
2022-08-22T10:52:24.898Z,22.31
2022-08-22T10:55:12.301Z,23.53
2022-08-22T10:57:38.978Z,21.54
2022-08-22T11:00:11.871Z,21.03
2022-08-22T11:02:38.640Z,22.25
2022-08-22T11:05:08.766Z,21.96
2022-08-22T11:07:44.562Z,23.04
2022-08-22T11:10:15.199Z,24.04
2022-08-22T11:12:49.713Z,25.05
2022-08-22T11:15:24.201Z,27.28
2022-08-22T11:18:08.001Z,25.82
2022-08-22T11:20:48.653Z,27.82
2022-08-22T11:23:16.416Z,30.20
2022-08-22T11:25:58.109Z,31.56
2022-08-22T11:28:42.820Z,29.48
2022-08-22T11:31:19.931Z,28.17
2022-08-22T11:33:58.489Z,31.49
2022-08-22T11:36:31.161Z,31.19
2022-08-22T11:39:01.186Z,30.44
2022-08-22T11:41:44.596Z,31.59
2022-08-22T11:44:22.319Z,33.16
2022-08-22T11:46:57.114Z,30.97
2022-08-22T11:49:32.922Z,32.17
2022-08-22T11:52:05.623Z,33.39
2022-08-22T11:54:37.383Z,37.25
2022-08-22T11:57:08.626Z,31.35
2022-08-22T11:59:53.949Z,33.41
2022-08-22T12:02:29.693Z,33.94
2022-08-22T12:05:13.748Z,34.95
2022-08-22T12:07:55.427Z,35.26
2022-08-22T12:10:27.939Z,30.77
2022-08-22T12:13:04.245Z,32.41
2022-08-22T12:15:36.716Z,30.68
2022-08-22T12:18:29.987Z,30.61
2022-08-22T12:21:11.854Z,32.12
2022-08-22T12:23:48.922Z,30.31
2022-08-22T12:26:18.734Z,32.32
2022-08-22T12:29:01.331Z,33.36
2022-08-22T12:31:33.618Z,33.09
2022-08-22T12:34:12.994Z,31.82
2022-08-22T12:36:51.311Z,32.79
2022-08-22T12:39:23.272Z,33.40
2022-08-22T12:42:09.273Z,32.39
2022-08-22T12:44:45.420Z,32.97
2022-08-22T12:47:25.186Z,32.40
2022-08-22T12:50:07.504Z,35.20
2022-08-22T12:52:33.933Z,38.16
2022-08-22T12:55:06.535Z,36.06
2022-08-22T12:57:54.135Z,37.07
2022-08-22T13:00:23.085Z,35.59
2022-08-22T13:02:54.568Z,35.39
2022-08-22T13:05:23.582Z,34.31
2022-08-22T13:07:56.017Z,37.26
2022-08-22T13:10:32.333Z,36.65
2022-08-22T13:13:12.817Z,34.57
2022-08-22T13:15:56.845Z,34.14
2022-08-22T13:21:31.511Z,35.05
2022-08-22T13:24:52.515Z,35.36
2022-08-22T13:27:51.254Z,36.02
2022-08-22T13:30:22.408Z,35.46
2022-08-22T13:32:51.171Z,36.18
2022-08-22T13:35:23.892Z,35.61
2022-08-22T13:37:54.716Z,34.24
2022-08-22T13:40:24.091Z,34.23
2022-08-22T13:43:01.381Z,35.51
2022-08-22T13:45:28.886Z,34.85
2022-08-22T13:48:03.861Z,35.73
2022-08-22T13:50:37.113Z,38.63
2022-08-22T13:53:28.003Z,37.86
2022-08-22T13:55:59.318Z,37.66
2022-08-22T13:58:38.929Z,37.55
2022-08-22T14:01:05.549Z,36.90
2022-08-22T14:03:40.042Z,36.56
2022-08-22T14:06:37.128Z,35.26
2022-08-22T14:09:12.244Z,35.39
2022-08-22T14:11:43.745Z,40.04
2022-08-22T14:14:10.682Z,37.74
2022-08-22T14:16:45.446Z,38.37
2022-08-22T14:19:15.793Z,37.85
2022-08-22T14:21:42.236Z,40.50
2022-08-22T14:24:31.159Z,35.81
2022-08-22T14:27:05.696Z,37.99
2022-08-22T14:29:51.936Z,36.72
2022-08-22T14:32:22.776Z,36.25
2022-08-22T14:35:23.313Z,36.86
2022-08-22T14:38:17.085Z,36.90
2022-08-22T14:40:46.246Z,38.19
2022-08-22T14:43:22.208Z,37.25
2022-08-22T14:45:57.279Z,34.64
2022-08-22T14:48:33.174Z,34.94
2022-08-22T14:51:10.400Z,33.29
2022-08-22T14:53:38.625Z,34.82
2022-08-22T14:56:13.405Z,34.65
2022-08-22T14:59:06.719Z,32.79
2022-08-22T15:01:35.396Z,34.83
2022-08-22T15:04:06.077Z,36.22
2022-08-22T15:06:35.959Z,35.94
2022-08-22T15:09:23.707Z,37.02
2022-08-22T15:11:50.612Z,36.34
2022-08-22T15:14:52.166Z,35.71
2022-08-22T15:17:51.412Z,35.30
2022-08-22T15:20:27.900Z,37.19
2022-08-22T15:22:55.620Z,37.74
2022-08-22T15:25:25.522Z,38.18
2022-08-22T15:27:56.763Z,38.23
2022-08-22T15:30:44.537Z,40.23
2022-08-22T15:33:33.711Z,40.24
2022-08-22T15:36:19.935Z,40.56
2022-08-22T15:38:50.771Z,40.03
2022-08-22T15:41:24.441Z,40.53
2022-08-22T15:44:05.056Z,40.72
2022-08-22T15:46:43.611Z,41.39
2022-08-22T15:49:10.716Z,41.81
2022-08-22T15:51:40.409Z,42.83
2022-08-22T15:54:13.146Z,43.10
2022-08-22T15:56:53.562Z,43.96
2022-08-22T15:59:25.555Z,43.45
2022-08-22T16:01:54.527Z,43.08
2022-08-22T16:04:32.649Z,43.00
2022-08-22T16:07:01.305Z,43.36
2022-08-22T16:09:36.917Z,43.58
2022-08-22T16:12:06.367Z,44.51
2022-08-22T16:14:35.966Z,43.94
2022-08-22T16:17:08.115Z,45.64
2022-08-22T16:19:35.526Z,46.00
2022-08-22T16:22:05.221Z,47.97
2022-08-22T16:24:33.986Z,47.52
2022-08-22T16:27:24.668Z,47.40
2022-08-22T16:29:59.308Z,49.19
2022-08-22T16:32:28.317Z,48.41
2022-08-22T16:34:54.687Z,49.14
2022-08-22T16:37:27.199Z,49.57
2022-08-22T16:40:04.110Z,49.31
2022-08-22T16:42:37.958Z,49.64
2022-08-22T16:45:08.343Z,50.07
2022-08-22T16:47:40.223Z,50.51
2022-08-22T16:50:06.633Z,51.94
2022-08-22T16:52:51.985Z,52.33
2022-08-22T16:55:30.383Z,52.59
2022-08-22T16:58:06.066Z,52.33
2022-08-22T17:00:58.094Z,52.49
2022-08-22T17:03:34.017Z,52.95
2022-08-22T17:06:23.346Z,53.21
2022-08-22T17:12:45.425Z,53.74
2022-08-22T17:50:23.920Z,60.20
2022-08-22T17:53:02.055Z,60.31
2022-08-22T18:10:57.392Z,63.64
2022-08-22T18:36:49.518Z,71.89
2022-08-22T18:39:29.804Z,70.91
2022-08-22T18:42:11.664Z,72.75
2022-08-22T18:44:47.988Z,72.15
2022-08-22T18:54:06.842Z,74.61
2022-08-22T19:13:10.873Z,72.04
2022-08-22T19:15:20.190Z,79.86
2022-08-22T19:18:19.693Z,79.82
2022-08-22T19:32:44.113Z,84.55
2022-08-22T19:50:28.068Z,79.85
2022-08-22T20:07:15.008Z,79.86
2022-08-22T20:09:47.949Z,83.80
2022-08-22T20:12:29.595Z,88.39
2022-08-22T20:14:57.106Z,90.61
2022-08-22T20:20:58.270Z,94.85
2022-08-22T20:41:35.518Z,97.71
2022-08-22T20:44:22.487Z,98.50
2022-08-22T20:46:53.618Z,98.44
2022-08-22T20:49:23.957Z,98.17
2022-08-22T20:51:55.492Z,98.95
2022-08-22T20:54:24.185Z,96.87
2022-08-22T20:56:53.485Z,97.01
2022-08-22T20:59:20.187Z,98.34
2022-08-22T21:01:47.020Z,99.11
2022-08-22T21:04:15.770Z,97.45
2022-08-22T21:06:42.180Z,95.57
2022-08-22T21:09:31.889Z,98.61
2022-08-22T21:11:59.901Z,100.00
2022-08-22T21:14:27.133Z,100.00
2022-08-22T21:16:53.759Z,100.00
2022-08-22T21:19:24.052Z,100.00
2022-08-22T21:21:50.546Z,100.00
2022-08-22T21:24:17.032Z,100.00
2022-08-22T21:26:46.431Z,100.00
2022-08-22T21:29:26.625Z,99.94
2022-08-22T21:32:15.489Z,100.00
2022-08-22T21:34:44.319Z,100.00
2022-08-22T21:37:18.171Z,100.00
2022-08-22T21:39:47.128Z,100.00
2022-08-22T21:42:30.413Z,100.00
2022-08-22T21:45:04.094Z,100.00
2022-08-22T21:47:35.811Z,100.00
2022-08-22T21:50:09.467Z,100.00
2022-08-22T21:52:37.269Z,100.00
2022-08-22T21:55:21.840Z,100.00
2022-08-22T21:58:13.629Z,100.00
2022-08-22T22:01:20.141Z,100.00
2022-08-22T22:03:51.419Z,100.00
2022-08-22T22:06:18.001Z,100.00
2022-08-22T22:08:46.808Z,100.00
2022-08-22T22:11:16.849Z,100.00
2022-08-22T22:16:52.953Z,100.00
2022-08-22T22:23:38.895Z,100.00
2022-08-22T22:29:04.083Z,100.00
2022-08-22T22:31:37.965Z,100.00
2022-08-22T22:34:35.738Z,100.00
2022-08-22T22:40:11.294Z,100.00
2022-08-22T22:53:33.755Z,100.00
2022-08-22T22:56:28.090Z,100.00
2022-08-22T23:02:58.716Z,100.00
2022-08-22T23:05:25.244Z,100.00
2022-08-22T23:07:51.693Z,100.00
2022-08-22T23:10:23.567Z,100.00
2022-08-22T23:12:50.076Z,100.00
2022-08-22T23:15:16.780Z,100.00
2022-08-22T23:17:43.723Z,100.00
2022-08-22T23:20:15.270Z,100.00
2022-08-22T23:22:44.973Z,100.00
2022-08-22T23:25:22.924Z,100.00
2022-08-22T23:28:05.661Z,100.00
2022-08-22T23:31:19.174Z,100.00
2022-08-22T23:34:14.612Z,100.00
2022-08-22T23:40:50.684Z,100.00
2022-08-22T23:43:19.273Z,100.00
2022-08-22T23:46:11.675Z,100.00
2022-08-22T23:48:40.774Z,100.00
